Terminal Aerodrome Forecast
Issued by NWS

Home | Current Version | Previous Version | Text Only | Print | Product List | Glossary On
Versions: 1 2 3 4 5 6 7 8 9 10 11 12 13
000
FTUS44 KEPZ 061700 RRA
TAFTCS
TAF
KTCS 061755Z 0618/0718 18009KT P6SM SCT080 BKN200
     FM062000 20017G27KT P6SM SCT100 BKN200
     FM070300 26012KT P6SM FEW120
     FM070800 28008KT P6SM FEW120
     FM071700 19010G18KT P6SM FEW080=

USA.gov is the U.S. government's official web portal to all federal, state and local government web resources and services.